Apalachicola, FL

12:40 AM EDT on October 01, 2014 (GMT -0400)
Tallahassee Regional | Change Station
CLOSE
Current Station
Airport
Location: Tallahassee,
Elevation: 52 ft
Nearby Weather Stations

Elev 52 ft 30.39 °N, 84.35 °W | Updated 47 minutes ago

Clear
Clear
74 °F
Feels Like 74 °F
N
4
Wind Variable Wind from NE

Today
High -- | Low -- °F
--% Chance of Precip.
Yesterday
High -- | Low -- °F
Precip. -- in
7:33 AM 7:25 PM
Waxing Crescent, 43% visible
Pressure 29.89 in
Visibility 10.0 miles
Clouds Overcast 4400 ft
Dew Point 69 °F
Humidity 85%
Rainfall 0.00 in
Snow Depth Not available.
UV 0 out of 12
Pollen 7.70 out of 12
Air Quality Not available.
Flu Activity Not available.
METAR KTLH 010353Z AUTO 05003KT 10SM OVC044 23/21 A2990 RMK AO2 SLP122 T02330206

More Conditions Fewer Conditions

Pressure 29.89 in
Visibility 10.0 miles
Clouds Overcast 4400 ft
Dew Point 69 °F
Humidity 85%
Rainfall 0.00 in
Snow Depth Not available.
UV 0 out of 12
Pollen 7.70 out of 12
Air Quality Not available.
Flu Activity Not available.
METAR KTLH 010353Z AUTO 05003KT 10SM OVC044 23/21 A2990 RMK AO2 SLP122 T02330206

More Conditions Fewer Conditions

10-Day Weather Forecast

Almanac

Astronomy

Oct. 01, 2014 Rise Set
Actual Time 7:33 AM EDT 7:25 PM EDT
Civil Twilight 7:09 AM EDT 7:49 PM EDT
Nautical Twilight 6:41 AM EDT 8:16 PM EDT
Astronomical Twilight 6:14 AM EDT 8:44 PM EDT
Moon 2:15 PM EDT 12:15 AM EDT
Length of Visible Light 12h 39m
Length of Day
11h 52m
Tomorrow will be 1m 46s shorter.
Waxing Crescent, 43% of the Moon is Illuminated
Today
Waxing Crescent
Oct 1
First Quarter
Oct 8
Full
Oct 15
Last Quarter
Oct 23
New

Today's Extremes

State Highs State Lows

Community

WunderPhotos

Upload Photos

1,757,847 photos uploaded!

Nearby

Snow Depth

Station Depth Elevation
No new snow has been reported.

Earthquake Activity

City Distance Mag. Time & Date
No recent earthquake activity has been reported nearby.
Minimum magnitude displayed is 2.5.

Coastal Water Temperatures

Place Temperature
Panama City, FL 80.1 °F
Panama City Beach, FL 81.0 °F
Apalachicola, FL 79.0 °F

Nearby Weather Stations